Airfield :
LOGIN :

Register | Disclaimer

   EN    FR    IT 

 










Legend :    VFR   Marginal VFR   IFR   Intensive IFR   Very Intensive IFR
Visi :
Ceiling :
>= 8 km
>= 3000ft
5 to 8 km
1000 to 3000 ft
1500m to 5 km
500 to 1000 ft
800 to 1500m
200 to 500 ft
< 800m
< 200 ft
Symbols :   Thunderstorms  Fog  Heavy snow  Heavy precipitations  Wind > 20 kt
SIGMETs :     Misc.  Thunderstorms  Icing  Turbulence  Mountain Waves  Volcanic Ashes







- Airport Elevation : 681 ft
- IATA code : LBA
- Download approach charts


EGNM - Leeds Bradford

CURRENT METAR :
  • 161150Z 28018KT 9999 -DZ SCT015 BKN021 04/01 Q0999

EXPIRED METARs :
  • 161120Z 27011KT 240V300 9999 SCT009 BKN025 06/03 Q0999
  • 161050Z 26009KT 230V290 9999 -RA SCT009 BKN025 05/04 Q0999
  • 161020Z 26011KT 230V310 9000 4000W -RA SCT009 BKN013 06/04 Q0999
  • 160950Z 26011KT 9999 SCT009 BKN013 06/04 Q0999
  • 160920Z 27013KT 9999 -RA SCT009 BKN015 06/04 Q0999
  • 160850Z 26015KT 9999 -RA SCT009 BKN015 06/05 Q0999

TAF TAF EGNM
Valid from the 16 at 12:00 until the 17 at 12:00 UTC


161105Z 1612/1712 26009KT 9999 FEW013 SCT025
PROB30
TEMPO 1612/1614 6000 RADZ BKN010
PROB30
TEMPO 1618/1703 6000 SHRA BKN008
BECMG 1701/1704 32012KT
PROB40
TEMPO 1702/1704 1200 SHSN BKN002
TEMPO 1703/1710 33015G25KT
ATIS : +44 113 250 9696 (x2489)
No reported NOTAMs for that airfield.



MET'MAP, your aeronautical weather chart ! - Copyright ORBIFLY December 2007 - Disclaimer

ORBIFLY MET'MAP TEAM :

Programming & Development : Alexandra Zaïnal
Concept & Development : Baudouin d'Aumeries
Co-Development & Prog : Marc-Olivier Méhu
Technical & hardware support : Manuel Goepfert

Contact : metmap@orbifly.com




SOURCES & CREDITS :

   NOAA